createdAt,value
2023-05-22T00:01:30.067Z,96052.00
2023-05-22T00:03:57.545Z,96057.16
2023-05-22T00:06:24.480Z,96056.19
2023-05-22T00:08:50.909Z,96051.41
2023-05-22T00:11:17.435Z,96047.31
2023-05-22T00:13:43.778Z,96054.03
2023-05-22T00:16:10.280Z,96057.88
2023-05-22T00:18:36.726Z,96062.34
2023-05-22T00:21:03.141Z,96051.91
2023-05-22T00:23:29.980Z,96054.53
2023-05-22T00:25:57.346Z,96053.69
2023-05-22T00:28:23.775Z,96057.59
2023-05-22T00:30:50.197Z,96054.75
2023-05-22T00:33:16.710Z,96060.19
2023-05-22T00:35:43.092Z,96062.63
2023-05-22T00:38:09.553Z,96059.16
2023-05-22T00:40:36.181Z,96063.25
2023-05-22T00:43:08.276Z,96066.75
2023-05-22T00:45:34.936Z,96059.06
2023-05-22T00:48:01.396Z,96063.75
2023-05-22T00:50:28.021Z,96062.72
2023-05-22T00:52:54.460Z,96071.72
2023-05-22T00:55:20.913Z,96068.50
2023-05-22T00:57:47.875Z,96070.38
2023-05-22T01:00:15.097Z,96068.84
2023-05-22T01:02:43.351Z,96078.41
2023-05-22T01:05:13.050Z,96085.78
2023-05-22T01:07:39.751Z,96077.25
2023-05-22T01:10:07.571Z,96078.25
2023-05-22T01:12:53.090Z,96074.25
2023-05-22T01:15:28.782Z,96075.00
2023-05-22T01:17:58.236Z,96079.44
2023-05-22T01:20:27.572Z,96074.50
2023-05-22T01:23:12.864Z,96086.94
2023-05-22T01:25:49.296Z,96078.69
2023-05-22T01:28:28.898Z,96069.53
2023-05-22T01:31:11.315Z,96079.22
2023-05-22T01:33:48.997Z,96082.84
2023-05-22T01:36:16.114Z,96084.56
2023-05-22T01:38:42.996Z,96077.59
2023-05-22T01:41:09.404Z,96086.59
2023-05-22T01:43:36.257Z,96078.59
2023-05-22T01:46:02.864Z,96079.69
2023-05-22T01:48:29.297Z,96082.22
2023-05-22T01:50:56.839Z,96087.69
2023-05-22T01:53:26.251Z,96086.53
2023-05-22T01:55:58.380Z,96089.59
2023-05-22T01:58:31.302Z,96083.28
2023-05-22T02:01:00.962Z,96088.06
2023-05-22T02:03:30.396Z,96092.06
2023-05-22T02:05:59.900Z,96095.94
2023-05-22T02:08:26.992Z,96091.19
2023-05-22T02:10:56.288Z,96087.66
2023-05-22T02:13:23.337Z,96091.94
2023-05-22T02:15:49.986Z,96081.25
2023-05-22T02:18:16.376Z,96082.78
2023-05-22T02:20:42.821Z,96083.13
2023-05-22T02:23:09.251Z,96081.53
2023-05-22T02:25:35.684Z,96079.50
2023-05-22T02:28:02.333Z,96080.81
2023-05-22T02:30:28.733Z,96086.91
2023-05-22T02:32:57.883Z,96084.31
2023-05-22T02:35:24.366Z,96077.84
2023-05-22T02:37:51.013Z,96073.75
2023-05-22T02:40:17.580Z,96072.81
2023-05-22T02:42:44.013Z,96072.53
2023-05-22T02:45:10.524Z,96074.41
2023-05-22T02:47:36.893Z,96076.09
2023-05-22T02:50:03.762Z,96074.84
2023-05-22T02:52:30.886Z,96084.75
2023-05-22T02:54:57.846Z,96073.75
2023-05-22T02:57:24.798Z,96077.41
2023-05-22T02:59:52.840Z,96076.16
2023-05-22T03:02:19.850Z,96068.38
2023-05-22T03:04:46.476Z,96069.56
2023-05-22T03:07:13.221Z,96075.97
2023-05-22T03:09:39.892Z,96068.59
2023-05-22T03:12:06.378Z,96062.28
2023-05-22T03:14:32.818Z,96056.38
2023-05-22T03:16:59.456Z,96056.63
2023-05-22T03:19:26.420Z,96064.47
2023-05-22T03:21:53.929Z,96062.47
2023-05-22T03:24:21.006Z,96068.09
2023-05-22T03:26:47.574Z,96068.31
2023-05-22T03:29:14.006Z,96075.78
2023-05-22T03:31:40.403Z,96075.22
2023-05-22T03:34:07.349Z,96068.13
2023-05-22T03:36:36.955Z,96063.94
2023-05-22T03:39:03.964Z,96057.31
2023-05-22T03:41:30.619Z,96059.16
2023-05-22T03:43:58.532Z,96053.13
2023-05-22T03:46:25.035Z,96054.13
2023-05-22T03:48:51.556Z,96054.34
2023-05-22T03:51:20.130Z,96058.13
2023-05-22T03:53:47.135Z,96052.91
2023-05-22T03:56:13.575Z,96051.41
2023-05-22T03:58:40.180Z,96050.88
2023-05-22T04:01:06.570Z,96055.47
2023-05-22T04:03:33.123Z,96058.72
2023-05-22T04:05:59.655Z,96056.72
2023-05-22T04:08:26.072Z,96051.66
2023-05-22T04:10:54.478Z,96060.19
2023-05-22T04:13:21.210Z,96057.63
2023-05-22T04:15:47.741Z,96066.50
2023-05-22T04:18:14.940Z,96060.09
2023-05-22T04:20:42.740Z,96067.50
2023-05-22T04:23:09.653Z,96067.31
2023-05-22T04:25:36.523Z,96064.50
2023-05-22T04:28:06.035Z,96072.50
2023-05-22T04:30:33.983Z,96076.66
2023-05-22T04:33:00.885Z,96078.97
2023-05-22T04:35:29.650Z,96081.75
2023-05-22T04:38:02.623Z,96075.16
2023-05-22T04:40:33.866Z,96068.94
2023-05-22T04:43:01.514Z,96074.63
2023-05-22T04:45:29.528Z,96075.13
2023-05-22T04:47:56.367Z,96078.75
2023-05-22T04:50:23.839Z,96088.16
2023-05-22T04:52:50.326Z,96092.47
2023-05-22T04:55:16.864Z,96107.34
2023-05-22T04:57:47.793Z,96094.50
2023-05-22T05:00:15.882Z,96100.63
2023-05-22T05:02:42.660Z,96102.88
2023-05-22T05:05:09.515Z,96097.38
2023-05-22T05:07:39.397Z,96116.41
2023-05-22T05:10:06.814Z,96106.59
2023-05-22T05:12:33.212Z,96105.44
2023-05-22T05:14:59.845Z,96109.78
2023-05-22T05:17:26.369Z,96106.63
2023-05-22T05:19:53.164Z,96099.06
2023-05-22T05:22:19.553Z,96107.50
2023-05-22T05:24:46.158Z,96106.75
2023-05-22T05:27:12.679Z,96108.94
2023-05-22T05:29:39.074Z,96103.56
2023-05-22T05:32:06.074Z,96104.78
2023-05-22T05:34:32.519Z,96099.63
2023-05-22T05:37:00.624Z,96098.41
2023-05-22T05:39:27.037Z,96092.47
2023-05-22T05:41:53.608Z,96094.13
2023-05-22T05:44:20.097Z,96089.84
2023-05-22T05:46:46.596Z,96086.78
2023-05-22T05:49:13.070Z,96088.88
2023-05-22T05:51:39.614Z,96088.63
2023-05-22T05:54:06.079Z,96088.03
2023-05-22T05:56:33.039Z,96086.13
2023-05-22T05:58:59.573Z,96083.88
2023-05-22T06:01:27.012Z,96082.94
2023-05-22T06:03:53.630Z,96081.19
2023-05-22T06:06:20.319Z,96081.50
2023-05-22T06:08:46.705Z,96079.59
2023-05-22T06:11:13.086Z,96083.69
2023-05-22T06:13:39.507Z,96088.59
2023-05-22T06:16:06.872Z,96080.75
2023-05-22T06:18:33.465Z,96078.38
2023-05-22T06:20:59.937Z,96081.00
2023-05-22T06:23:26.495Z,96079.97
2023-05-22T06:25:53.926Z,96077.63
2023-05-22T06:28:20.466Z,96086.88
2023-05-22T06:30:47.225Z,96073.13
2023-05-22T06:33:14.589Z,96072.03
2023-05-22T06:35:41.879Z,96067.44
2023-05-22T06:38:08.445Z,96068.22
2023-05-22T06:40:34.927Z,96067.44
2023-05-22T06:43:01.662Z,96064.03
2023-05-22T06:45:28.719Z,96058.88
2023-05-22T06:47:55.477Z,96053.56
2023-05-22T06:50:22.280Z,96058.88
2023-05-22T06:52:49.314Z,96051.72
2023-05-22T06:55:15.697Z,96055.78
2023-05-22T06:57:42.100Z,96056.47
2023-05-22T07:00:09.964Z,96056.22
2023-05-22T07:02:37.031Z,96059.16
2023-05-22T07:05:03.681Z,96054.94
2023-05-22T07:07:30.755Z,96060.09
2023-05-22T07:09:57.183Z,96051.34
2023-05-22T07:12:26.155Z,96060.44
2023-05-22T07:14:53.033Z,96058.34
2023-05-22T07:17:20.563Z,96062.19
2023-05-22T07:19:47.515Z,96062.75
2023-05-22T07:22:14.209Z,96070.22
2023-05-22T07:24:40.857Z,96058.66
2023-05-22T07:27:07.335Z,96060.69
2023-05-22T07:29:33.761Z,96065.44
2023-05-22T07:32:00.431Z,96061.13
2023-05-22T07:34:34.114Z,96064.66
2023-05-22T07:37:01.284Z,96059.03
2023-05-22T07:39:28.663Z,96062.25
2023-05-22T07:41:57.023Z,96064.72
2023-05-22T07:44:24.439Z,96063.41
2023-05-22T07:46:51.975Z,96057.72
2023-05-22T07:49:20.311Z,96052.94
2023-05-22T07:51:47.192Z,96057.38
2023-05-22T07:54:14.303Z,96055.69
2023-05-22T07:56:41.598Z,96055.19
2023-05-22T07:59:09.211Z,96057.59
2023-05-22T08:01:37.547Z,96051.88
2023-05-22T08:04:05.055Z,96046.75
2023-05-22T08:06:31.757Z,96047.81
2023-05-22T08:09:00.095Z,96049.84
2023-05-22T08:11:26.575Z,96051.19
2023-05-22T08:13:53.002Z,96034.16
2023-05-22T08:16:19.542Z,96042.75
2023-05-22T08:18:45.945Z,96041.88
2023-05-22T08:21:12.409Z,96041.66
2023-05-22T08:23:38.791Z,96039.56
2023-05-22T08:26:06.217Z,96039.47
2023-05-22T08:28:32.619Z,96033.09
2023-05-22T08:30:59.703Z,96033.03
2023-05-22T08:33:26.872Z,96033.28
2023-05-22T08:35:53.302Z,96029.75
2023-05-22T08:38:19.731Z,96029.66
2023-05-22T08:40:47.976Z,96024.13
2023-05-22T08:43:15.479Z,96014.38
2023-05-22T08:45:43.783Z,96012.81
2023-05-22T08:48:12.568Z,96009.44
2023-05-22T08:50:42.765Z,96009.94
2023-05-22T08:53:11.318Z,96018.91
2023-05-22T08:55:37.846Z,96008.50
2023-05-22T08:58:04.385Z,96020.16
2023-05-22T09:00:31.000Z,96012.88
2023-05-22T09:02:57.660Z,95996.34
2023-05-22T09:05:28.954Z,96005.44
2023-05-22T09:07:58.223Z,96013.28
2023-05-22T09:10:26.954Z,96013.19
2023-05-22T09:13:09.510Z,96006.00
2023-05-22T09:15:36.530Z,96004.91
2023-05-22T09:18:03.871Z,96000.72
2023-05-22T09:20:33.839Z,95997.13
2023-05-22T09:23:02.503Z,96000.03
2023-05-22T09:25:30.191Z,95990.75
2023-05-22T09:27:57.054Z,95997.28
2023-05-22T09:30:23.479Z,95989.72
2023-05-22T09:32:49.960Z,96002.63
2023-05-22T09:35:16.579Z,95990.91
2023-05-22T09:37:43.153Z,95989.91
2023-05-22T09:40:12.053Z,95993.50
2023-05-22T09:42:38.582Z,95992.09
2023-05-22T09:45:08.451Z,95987.16
2023-05-22T09:47:35.277Z,95997.06
2023-05-22T09:50:07.366Z,95993.47
2023-05-22T09:52:35.042Z,95987.53
2023-05-22T09:55:16.797Z,95985.56
2023-05-22T09:57:44.290Z,95978.41
2023-05-22T10:00:18.132Z,95987.72
2023-05-22T10:02:49.176Z,95978.53
2023-05-22T10:05:22.065Z,95982.69
2023-05-22T10:07:53.616Z,95978.59
2023-05-22T10:10:24.494Z,95978.97
2023-05-22T10:13:00.234Z,95971.19
2023-05-22T10:15:27.111Z,95967.63
2023-05-22T10:17:53.593Z,95971.00
2023-05-22T10:20:20.340Z,95961.19
2023-05-22T10:22:47.435Z,95952.28
2023-05-22T10:25:13.983Z,95955.28
2023-05-22T10:27:40.784Z,95957.50
2023-05-22T10:30:19.183Z,95949.72
2023-05-22T10:32:47.816Z,95945.44
2023-05-22T10:35:14.193Z,95946.72
2023-05-22T10:37:44.442Z,95945.19
2023-05-22T10:40:12.776Z,95937.84
2023-05-22T10:42:39.580Z,95938.72
2023-05-22T10:45:09.367Z,95927.00
2023-05-22T10:47:36.335Z,95926.38
2023-05-22T10:50:09.737Z,95928.81
2023-05-22T10:52:36.730Z,95924.00
2023-05-22T10:55:07.285Z,95928.13
2023-05-22T10:57:36.884Z,95924.19
2023-05-22T11:00:10.657Z,95922.38
2023-05-22T11:02:41.684Z,95922.03
2023-05-22T11:05:13.947Z,95913.72
2023-05-22T11:07:41.261Z,95913.44
2023-05-22T11:10:07.874Z,95904.66
2023-05-22T11:12:34.296Z,95906.16
2023-05-22T11:15:08.026Z,95899.16
2023-05-22T11:17:36.309Z,95894.09
2023-05-22T11:20:05.590Z,95899.25
2023-05-22T11:22:43.015Z,95900.78
2023-05-22T11:25:11.349Z,95895.94
2023-05-22T11:27:39.337Z,95901.44
2023-05-22T11:30:06.797Z,95888.97
2023-05-22T11:32:35.337Z,95890.75
2023-05-22T11:35:02.067Z,95888.06
2023-05-22T11:37:28.821Z,95886.97
2023-05-22T11:39:56.822Z,95879.47
2023-05-22T11:42:23.914Z,95881.22
2023-05-22T11:44:50.823Z,95876.94
2023-05-22T11:47:17.356Z,95879.13
2023-05-22T11:49:44.445Z,95877.50
2023-05-22T11:52:11.048Z,95874.44
2023-05-22T11:54:38.878Z,95871.59
2023-05-22T11:57:06.877Z,95859.63
2023-05-22T11:59:33.786Z,95864.06
2023-05-22T12:02:00.321Z,95863.38
2023-05-22T12:04:27.353Z,95853.19
2023-05-22T12:06:54.709Z,95849.34
2023-05-22T12:09:21.877Z,95850.38
2023-05-22T12:11:48.576Z,95845.78
2023-05-22T12:14:15.119Z,95856.59
2023-05-22T12:16:41.758Z,95842.91
2023-05-22T12:19:08.986Z,95835.72
2023-05-22T12:21:39.220Z,95844.41
2023-05-22T12:24:06.182Z,95834.00
2023-05-22T12:26:32.928Z,95839.34
2023-05-22T12:29:00.239Z,95831.69
2023-05-22T12:31:27.114Z,95825.91
2023-05-22T12:33:57.115Z,95827.53
2023-05-22T12:36:39.830Z,95829.28
2023-05-22T12:39:16.981Z,95838.03
2023-05-22T12:41:44.103Z,95822.22
2023-05-22T12:44:10.923Z,95822.91
2023-05-22T12:46:38.052Z,95821.84
2023-05-22T12:49:04.539Z,95819.25
2023-05-22T12:51:31.958Z,95824.94
2023-05-22T12:53:58.603Z,95824.56
2023-05-22T12:56:25.164Z,95819.78
2023-05-22T12:58:51.652Z,95819.16
2023-05-22T13:01:18.443Z,95827.00
2023-05-22T13:03:45.793Z,95830.06
2023-05-22T13:06:15.302Z,95818.81
2023-05-22T13:08:42.002Z,95822.59
2023-05-22T13:11:09.297Z,95817.72
2023-05-22T13:13:35.730Z,95815.75
2023-05-22T13:16:02.169Z,95817.50
2023-05-22T13:18:28.661Z,95808.44
2023-05-22T13:20:57.505Z,95816.53
2023-05-22T13:23:26.776Z,95815.13
2023-05-22T13:25:53.260Z,95812.00
2023-05-22T13:28:19.886Z,95809.16
2023-05-22T13:30:46.364Z,95805.66
2023-05-22T13:33:13.739Z,95812.25
2023-05-22T13:35:40.368Z,95798.19
2023-05-22T13:38:07.206Z,95799.63
2023-05-22T13:40:33.776Z,95804.09
2023-05-22T13:43:01.482Z,95798.63
2023-05-22T13:45:27.983Z,95797.94
2023-05-22T13:47:54.455Z,95789.91
2023-05-22T13:50:20.988Z,95783.22
2023-05-22T13:52:49.229Z,95791.97
2023-05-22T13:55:15.709Z,95787.53
2023-05-22T13:57:42.227Z,95786.81
2023-05-22T14:02:50.263Z,95791.31
2023-05-22T14:05:16.833Z,95781.13
2023-05-22T14:07:46.368Z,95770.97
2023-05-22T14:10:13.009Z,95775.94
2023-05-22T14:12:39.437Z,95780.31
2023-05-22T14:15:06.162Z,95775.78
2023-05-22T14:17:34.717Z,95771.84
2023-05-22T14:20:01.632Z,95776.47
2023-05-22T14:22:28.017Z,95768.88
2023-05-22T14:24:54.622Z,95777.81
2023-05-22T14:27:21.071Z,95767.22
2023-05-22T14:29:47.438Z,95774.03
2023-05-22T14:32:13.866Z,95771.06
2023-05-22T14:34:40.507Z,95762.59
2023-05-22T14:37:06.940Z,95766.13
2023-05-22T14:39:33.354Z,95766.00
2023-05-22T14:42:00.768Z,95762.59
2023-05-22T14:44:27.286Z,95761.72
2023-05-22T14:46:54.575Z,95761.84
2023-05-22T14:49:21.029Z,95763.06
2023-05-22T14:51:48.365Z,95757.72
2023-05-22T14:54:17.756Z,95748.75
2023-05-22T14:56:44.663Z,95751.34
2023-05-22T14:59:14.305Z,95753.03
2023-05-22T15:01:41.465Z,95737.50
2023-05-22T15:04:08.880Z,95734.53
2023-05-22T15:06:35.662Z,95736.69
2023-05-22T15:09:04.986Z,95726.75
2023-05-22T15:11:31.948Z,95728.94
2023-05-22T15:13:58.366Z,95735.88
2023-05-22T15:16:25.869Z,95735.81
2023-05-22T15:18:52.375Z,95737.25
2023-05-22T15:21:19.187Z,95732.66
2023-05-22T15:23:45.716Z,95734.56
2023-05-22T15:26:12.303Z,95740.19
2023-05-22T15:28:38.638Z,95753.19
2023-05-22T15:31:05.057Z,95746.81
2023-05-22T15:33:32.572Z,95745.66
2023-05-22T15:35:58.990Z,95750.47
2023-05-22T15:38:25.601Z,95749.84
2023-05-22T15:40:52.137Z,95746.34
2023-05-22T15:43:18.825Z,95753.78
2023-05-22T15:45:49.404Z,95747.88
2023-05-22T15:48:16.610Z,95747.78
2023-05-22T15:50:43.078Z,95755.38
2023-05-22T15:53:09.580Z,95747.06
2023-05-22T15:55:36.617Z,95755.28
2023-05-22T15:58:04.606Z,95758.34
2023-05-22T16:00:31.913Z,95757.28
2023-05-22T16:02:58.602Z,95758.91
2023-05-22T16:05:25.293Z,95753.69
2023-05-22T16:07:51.772Z,95755.59
2023-05-22T16:10:18.720Z,95754.09
2023-05-22T16:12:45.249Z,95739.22
2023-05-22T16:15:11.929Z,95745.22
2023-05-22T16:17:39.082Z,95747.25
2023-05-22T16:20:06.417Z,95746.88
2023-05-22T16:22:47.226Z,95749.94
2023-05-22T16:25:15.964Z,95747.66
2023-05-22T16:27:42.647Z,95752.56
2023-05-22T16:30:09.352Z,95745.59
2023-05-22T16:32:35.974Z,95750.41
2023-05-22T16:35:03.740Z,95756.56
2023-05-22T16:37:30.470Z,95763.50
2023-05-22T16:39:57.070Z,95763.22
2023-05-22T16:42:23.984Z,95760.72
2023-05-22T16:44:50.411Z,95757.59
2023-05-22T16:47:16.895Z,95761.72
2023-05-22T16:49:43.401Z,95757.09
2023-05-22T16:52:09.914Z,95763.22
2023-05-22T16:54:37.058Z,95761.72
2023-05-22T16:57:04.168Z,95759.09
2023-05-22T16:59:30.933Z,95761.38
2023-05-22T17:01:57.383Z,95763.88
2023-05-22T17:04:23.908Z,95758.81
2023-05-22T17:06:53.750Z,95766.50
2023-05-22T17:09:21.664Z,95767.97
2023-05-22T17:11:48.588Z,95771.13
2023-05-22T17:14:15.137Z,95772.84
2023-05-22T17:16:41.666Z,95778.78
2023-05-22T17:19:08.217Z,95783.06
2023-05-22T17:21:34.772Z,95778.09
2023-05-22T17:24:01.561Z,95787.63
2023-05-22T17:26:29.649Z,95787.88
2023-05-22T17:28:56.247Z,95797.63
2023-05-22T17:31:22.796Z,95796.63
2023-05-22T17:33:49.502Z,95800.22
2023-05-22T17:36:15.922Z,95807.56
2023-05-22T17:38:42.372Z,95806.44
2023-05-22T17:41:08.984Z,95810.00
2023-05-22T17:43:36.774Z,95813.06
2023-05-22T17:46:03.897Z,95805.94
2023-05-22T17:48:30.403Z,95804.13
2023-05-22T17:50:56.841Z,95798.97
2023-05-22T17:53:23.351Z,95805.03
2023-05-22T17:55:50.919Z,95810.88
2023-05-22T17:58:17.980Z,95814.06
2023-05-22T18:00:45.743Z,95807.06
2023-05-22T18:03:12.504Z,95817.31
2023-05-22T18:05:39.014Z,95818.25
2023-05-22T18:08:05.806Z,95820.59
2023-05-22T18:10:32.752Z,95813.06
2023-05-22T18:12:59.182Z,95825.13
2023-05-22T18:15:25.936Z,95828.88
2023-05-22T18:17:52.435Z,95826.97
2023-05-22T18:20:20.115Z,95824.22
2023-05-22T18:22:47.670Z,95836.81
2023-05-22T18:25:14.180Z,95834.38
2023-05-22T18:27:40.619Z,95839.50
2023-05-22T18:30:07.887Z,95842.22
2023-05-22T18:32:34.471Z,95843.66
2023-05-22T18:35:03.535Z,95854.38
2023-05-22T18:37:30.338Z,95854.53
2023-05-22T18:39:56.963Z,95857.81
2023-05-22T18:42:23.693Z,95860.22
2023-05-22T18:44:50.689Z,95861.41
2023-05-22T18:47:17.503Z,95875.91
2023-05-22T18:49:44.299Z,95872.34
2023-05-22T18:52:10.820Z,95879.59
2023-05-22T18:54:37.411Z,95880.84
2023-05-22T19:07:29.433Z,95895.34
2023-05-22T19:43:55.177Z,95924.44
2023-05-22T19:47:10.350Z,95926.00
2023-05-22T20:03:05.231Z,95966.50
2023-05-22T20:55:05.554Z,96060.22
2023-05-22T20:57:32.406Z,96066.78
2023-05-22T20:59:58.842Z,96067.47
2023-05-22T21:02:25.581Z,96065.28
2023-05-22T21:04:52.092Z,96074.78
2023-05-22T21:07:18.519Z,96081.00
2023-05-22T21:09:45.845Z,96090.97
2023-05-22T21:12:12.245Z,96098.84
2023-05-22T21:14:38.661Z,96107.25
2023-05-22T21:17:05.849Z,96104.66
2023-05-22T21:19:32.481Z,96113.25
2023-05-22T21:21:58.844Z,96113.84
2023-05-22T21:24:25.449Z,96111.34
2023-05-22T21:26:51.934Z,96120.97
2023-05-22T21:29:18.447Z,96116.03
2023-05-22T21:31:44.917Z,96126.03
2023-05-22T21:34:11.314Z,96134.03
2023-05-22T21:36:37.872Z,96127.69
2023-05-22T21:39:04.338Z,96136.25
2023-05-22T21:41:30.888Z,96130.41
2023-05-22T21:43:57.552Z,96132.53
2023-05-22T21:46:24.452Z,96130.69
2023-05-22T21:48:51.021Z,96130.69
2023-05-22T21:51:17.437Z,96138.81
2023-05-22T21:53:43.812Z,96131.56
2023-05-22T21:56:10.449Z,96132.00
2023-05-22T21:58:36.829Z,96131.19
2023-05-22T22:01:04.006Z,96137.38
2023-05-22T22:03:30.525Z,96132.72
2023-05-22T22:05:57.079Z,96137.00
2023-05-22T22:08:23.568Z,96147.38
2023-05-22T22:10:49.965Z,96148.88
2023-05-22T22:13:16.554Z,96152.13
2023-05-22T22:15:43.096Z,96161.63
2023-05-22T22:18:09.656Z,96159.41
2023-05-22T22:20:44.191Z,96166.03
2023-05-22T22:23:11.969Z,96169.94
2023-05-22T22:25:39.062Z,96170.25
2023-05-22T22:28:05.940Z,96178.91
2023-05-22T22:30:32.881Z,96182.63
2023-05-22T22:32:59.510Z,96187.75
2023-05-22T22:35:25.971Z,96192.41
2023-05-22T22:37:52.372Z,96195.75
2023-05-22T22:40:18.798Z,96201.25
2023-05-22T22:42:45.297Z,96192.41
2023-05-22T22:45:11.853Z,96191.47
2023-05-22T22:47:39.577Z,96193.84
2023-05-22T22:50:06.215Z,96198.81
2023-05-22T22:52:33.538Z,96197.75
2023-05-22T22:54:59.999Z,96190.41
2023-05-22T22:57:26.451Z,96195.00
2023-05-22T22:59:52.831Z,96195.50
2023-05-22T23:02:19.255Z,96189.91
2023-05-22T23:04:45.713Z,96187.41
2023-05-22T23:07:12.159Z,96193.84
2023-05-22T23:09:40.216Z,96196.72
2023-05-22T23:12:11.049Z,96192.91
2023-05-22T23:14:37.713Z,96192.44
2023-05-22T23:17:04.780Z,96192.06
2023-05-22T23:19:31.243Z,96192.72
2023-05-22T23:21:59.720Z,96185.53
2023-05-22T23:24:26.101Z,96184.22
2023-05-22T23:26:53.001Z,96196.97
2023-05-22T23:29:19.390Z,96196.75
2023-05-22T23:31:47.349Z,96195.63
2023-05-22T23:34:14.044Z,96200.38
2023-05-22T23:36:40.418Z,96201.31
2023-05-22T23:39:06.850Z,96203.44
2023-05-22T23:41:33.793Z,96197.78
2023-05-22T23:44:00.217Z,96199.22
2023-05-22T23:46:26.694Z,96199.81
2023-05-22T23:48:53.377Z,96202.72
2023-05-22T23:51:20.059Z,96192.50
2023-05-22T23:53:46.477Z,96192.81
2023-05-22T23:56:12.956Z,96195.38
2023-05-22T23:58:39.673Z,96193.41
